createdAt,value
2022-08-08T00:02:33.227Z,20.69
2022-08-08T00:05:21.447Z,20.69
2022-08-08T00:08:24.980Z,20.65
2022-08-08T00:11:12.888Z,20.64
2022-08-08T00:14:14.840Z,20.63
2022-08-08T00:17:23.179Z,20.56
2022-08-08T00:20:01.336Z,20.53
2022-08-08T00:22:41.043Z,20.48
2022-08-08T00:25:44.878Z,20.43
2022-08-08T00:28:35.232Z,20.42
2022-08-08T00:32:29.069Z,20.38
2022-08-08T00:35:04.502Z,20.34
2022-08-08T00:38:01.213Z,20.34
2022-08-08T00:41:12.142Z,20.30
2022-08-08T00:43:29.684Z,20.26
2022-08-08T00:46:57.596Z,20.21
2022-08-08T00:49:43.134Z,20.17
2022-08-08T00:52:40.480Z,20.11
2022-08-08T00:55:36.033Z,20.04
2022-08-08T00:59:02.533Z,19.97
2022-08-08T01:01:46.712Z,19.97
2022-08-08T01:04:52.770Z,19.95
2022-08-08T01:07:54.879Z,19.96
2022-08-08T01:10:50.802Z,19.93
2022-08-08T01:14:05.598Z,19.94
2022-08-08T01:16:48.652Z,19.92
2022-08-08T01:19:52.193Z,19.93
2022-08-08T01:22:36.565Z,19.90
2022-08-08T01:25:42.831Z,19.89
2022-08-08T01:28:33.135Z,19.91
2022-08-08T01:32:05.511Z,19.83
2022-08-08T01:34:42.312Z,19.71
2022-08-08T01:37:56.364Z,19.62
2022-08-08T01:40:30.026Z,19.59
2022-08-08T01:43:24.387Z,19.57
2022-08-08T01:46:13.625Z,19.55
2022-08-08T01:48:55.207Z,19.51
2022-08-08T01:52:54.691Z,19.45
2022-08-08T01:55:19.325Z,19.41
2022-08-08T01:58:12.556Z,19.35
2022-08-08T02:00:43.454Z,19.26
2022-08-08T02:03:54.571Z,19.28
2022-08-08T02:06:56.831Z,19.26
2022-08-08T02:10:01.597Z,19.26
2022-08-08T02:12:35.066Z,19.23
2022-08-08T02:15:47.536Z,19.21
2022-08-08T02:18:27.261Z,19.21
2022-08-08T02:21:34.424Z,19.15
2022-08-08T02:24:24.826Z,19.11
2022-08-08T02:27:07.607Z,19.07
2022-08-08T02:30:05.685Z,19.04
2022-08-08T02:32:50.652Z,19.02
2022-08-08T02:36:04.387Z,19.03
2022-08-08T02:38:54.935Z,19.08
2022-08-08T02:41:58.428Z,19.10
2022-08-08T02:44:59.246Z,19.03
2022-08-08T02:47:47.007Z,19.01
2022-08-08T02:50:24.504Z,19.04
2022-08-08T02:52:58.891Z,19.02
2022-08-08T02:55:47.342Z,18.99
2022-08-08T02:59:02.141Z,18.98
2022-08-08T03:01:50.270Z,18.94
2022-08-08T03:05:02.374Z,18.88
2022-08-08T03:07:24.671Z,18.85
2022-08-08T03:10:06.202Z,18.89
2022-08-08T03:13:01.879Z,18.87
2022-08-08T03:16:05.429Z,18.83
2022-08-08T03:18:59.077Z,18.75
2022-08-08T03:21:26.932Z,18.73
2022-08-08T03:24:07.211Z,18.72
2022-08-08T03:26:43.466Z,18.70
2022-08-08T03:29:20.568Z,18.67
2022-08-08T03:32:12.269Z,18.73
2022-08-08T03:34:41.208Z,18.74
2022-08-08T03:38:00.058Z,18.74
2022-08-08T03:40:03.785Z,18.73
2022-08-08T03:42:31.034Z,18.67
2022-08-08T03:44:58.516Z,18.70
2022-08-08T03:47:27.830Z,18.68
2022-08-08T03:50:19.960Z,18.67
2022-08-08T03:52:51.518Z,18.63
2022-08-08T03:55:54.987Z,18.60
2022-08-08T03:58:30.415Z,18.57
2022-08-08T04:01:01.726Z,18.57
2022-08-08T04:03:59.774Z,18.52
2022-08-08T04:06:22.701Z,18.53
2022-08-08T04:08:49.701Z,18.55
2022-08-08T04:11:20.923Z,18.57
2022-08-08T04:14:03.363Z,18.57
2022-08-08T04:16:40.331Z,18.60
2022-08-08T04:19:24.990Z,18.61
2022-08-08T04:21:52.659Z,18.59
2022-08-08T04:24:28.629Z,18.59
2022-08-08T04:26:57.681Z,18.57
2022-08-08T04:29:25.356Z,18.59
2022-08-08T04:31:58.876Z,18.56
2022-08-08T04:34:31.768Z,18.58
2022-08-08T04:36:59.309Z,18.60
2022-08-08T04:40:04.349Z,18.62
2022-08-08T04:42:15.947Z,18.60
2022-08-08T04:44:47.637Z,18.63
2022-08-08T04:47:15.155Z,18.65
2022-08-08T04:49:55.956Z,18.70
2022-08-08T04:52:25.921Z,18.72
2022-08-08T04:55:01.492Z,18.82
2022-08-08T04:57:28.743Z,19.28
2022-08-08T04:59:58.052Z,19.76
2022-08-08T05:02:31.317Z,20.27
2022-08-08T05:04:59.577Z,20.63
2022-08-08T05:07:37.963Z,20.78
2022-08-08T05:10:13.011Z,20.84
2022-08-08T05:12:43.074Z,20.93
2022-08-08T05:16:48.012Z,21.12
2022-08-08T05:18:13.672Z,20.81
2022-08-08T05:20:49.817Z,20.65
2022-08-08T05:23:17.881Z,20.88
2022-08-08T05:25:44.523Z,21.24
2022-08-08T05:28:13.491Z,21.60
2022-08-08T05:30:47.114Z,21.73
2022-08-08T05:33:16.958Z,21.86
2022-08-08T05:35:46.795Z,21.76
2022-08-08T05:38:30.438Z,21.69
2022-08-08T05:40:59.139Z,21.41
2022-08-08T05:44:02.522Z,21.11
2022-08-08T05:46:16.086Z,21.03
2022-08-08T05:48:43.804Z,21.19
2022-08-08T05:51:19.290Z,21.23
2022-08-08T05:54:24.205Z,21.00
2022-08-08T05:56:41.844Z,20.79
2022-08-08T05:59:59.427Z,20.81
2022-08-08T06:02:40.848Z,20.63
2022-08-08T06:05:33.743Z,20.61
2022-08-08T06:08:02.444Z,20.66
2022-08-08T06:10:39.323Z,20.97
2022-08-08T06:13:12.446Z,21.15
2022-08-08T06:15:51.218Z,20.97
2022-08-08T06:18:22.301Z,20.76
2022-08-08T06:20:52.922Z,20.59
2022-08-08T06:23:48.904Z,20.82
2022-08-08T06:26:38.576Z,21.10
2022-08-08T06:29:49.207Z,21.26
2022-08-08T06:32:10.229Z,20.95
2022-08-08T06:34:52.552Z,20.79
2022-08-08T06:37:39.570Z,20.71
2022-08-08T06:40:12.126Z,20.85
2022-08-08T06:42:57.359Z,20.86
2022-08-08T06:45:24.559Z,20.92
2022-08-08T06:48:01.347Z,21.17
2022-08-08T06:50:31.408Z,21.54
2022-08-08T06:53:14.363Z,21.91
2022-08-08T06:56:02.802Z,22.03
2022-08-08T06:58:33.549Z,22.13
2022-08-08T07:01:11.662Z,22.02
2022-08-08T07:04:40.586Z,21.68
2022-08-08T07:06:45.010Z,21.48
2022-08-08T07:09:17.914Z,21.47
2022-08-08T07:11:52.059Z,21.58
2022-08-08T07:14:32.018Z,21.67
2022-08-08T07:17:09.218Z,21.68
2022-08-08T07:19:44.816Z,21.71
2022-08-08T07:22:22.204Z,21.66
2022-08-08T07:24:59.803Z,21.63
2022-08-08T07:28:00.847Z,21.67
2022-08-08T07:30:25.696Z,21.75
2022-08-08T07:32:53.219Z,21.84
2022-08-08T07:35:21.561Z,21.92
2022-08-08T07:38:04.709Z,22.04
2022-08-08T07:40:37.221Z,22.18
2022-08-08T07:43:09.642Z,22.43
2022-08-08T07:46:05.523Z,22.91
2022-08-08T07:48:24.298Z,23.34
2022-08-08T07:50:53.928Z,23.58
2022-08-08T07:54:02.765Z,23.38
2022-08-08T07:56:37.385Z,23.52
2022-08-08T07:59:14.250Z,23.77
2022-08-08T08:02:35.996Z,23.97
2022-08-08T08:04:44.238Z,23.90
2022-08-08T08:07:16.071Z,23.85
2022-08-08T08:09:42.803Z,23.87
2022-08-08T08:12:31.296Z,23.94
2022-08-08T08:15:08.533Z,23.86
2022-08-08T08:17:49.234Z,23.89
2022-08-08T08:20:30.470Z,23.98
2022-08-08T08:22:57.546Z,24.16
2022-08-08T08:25:42.350Z,24.23
2022-08-08T08:28:10.499Z,24.22
2022-08-08T08:30:43.794Z,24.30
2022-08-08T08:33:12.802Z,24.45
2022-08-08T08:36:20.281Z,24.67
2022-08-08T08:38:27.580Z,24.76
2022-08-08T08:40:54.834Z,24.73
2022-08-08T08:43:26.822Z,24.79
2022-08-08T08:45:57.282Z,24.86
2022-08-08T08:48:24.841Z,25.00
2022-08-08T08:50:53.372Z,25.20
2022-08-08T08:53:54.503Z,25.43
2022-08-08T08:56:10.690Z,25.45
2022-08-08T08:58:46.534Z,25.35
2022-08-08T09:01:19.631Z,25.49
2022-08-08T09:03:51.009Z,25.67
2022-08-08T09:06:33.979Z,25.82
2022-08-08T09:09:26.521Z,25.91
2022-08-08T09:12:07.797Z,26.00
2022-08-08T09:14:35.607Z,26.19
2022-08-08T09:17:15.732Z,26.42
2022-08-08T09:21:57.826Z,26.52
2022-08-08T09:22:31.793Z,26.43
2022-08-08T09:24:58.459Z,26.48
2022-08-08T09:27:56.166Z,26.63
2022-08-08T09:30:17.379Z,26.76
2022-08-08T09:32:50.419Z,26.67
2022-08-08T09:35:37.303Z,26.71
2022-08-08T09:38:05.833Z,26.83
2022-08-08T09:40:47.719Z,26.97
2022-08-08T09:44:05.554Z,27.16
2022-08-08T09:46:30.607Z,27.28
2022-08-08T09:49:18.310Z,27.42
2022-08-08T09:52:06.678Z,27.49
2022-08-08T09:54:42.052Z,27.54
2022-08-08T09:57:17.252Z,27.38
2022-08-08T10:02:49.201Z,27.27
2022-08-08T10:05:25.181Z,27.32
2022-08-08T10:07:52.375Z,27.35
2022-08-08T10:10:38.363Z,27.44
2022-08-08T10:13:29.878Z,27.54
2022-08-08T10:16:03.818Z,27.77
2022-08-08T10:18:35.869Z,27.95
2022-08-08T10:21:22.503Z,28.04
2022-08-08T10:23:58.505Z,28.17
2022-08-08T10:26:56.789Z,28.38
2022-08-08T10:29:59.244Z,28.57
2022-08-08T10:32:35.845Z,28.59
2022-08-08T10:36:01.913Z,28.50
2022-08-08T10:38:01.439Z,28.53
2022-08-08T10:40:32.739Z,28.58
2022-08-08T10:43:05.202Z,28.70
2022-08-08T10:45:56.774Z,28.88
2022-08-08T10:48:58.596Z,29.02
2022-08-08T10:51:26.177Z,29.10
2022-08-08T10:53:58.364Z,29.24
2022-08-08T10:56:27.355Z,29.23
2022-08-08T10:58:59.878Z,29.34
2022-08-08T11:01:33.534Z,29.47
2022-08-08T11:04:04.540Z,29.53
2022-08-08T11:06:36.591Z,29.57
2022-08-08T11:09:20.110Z,29.60
2022-08-08T11:12:05.832Z,29.59
2022-08-08T11:15:02.149Z,29.66
2022-08-08T11:17:59.718Z,29.61
2022-08-08T11:20:27.611Z,29.61
2022-08-08T11:23:05.208Z,29.61
2022-08-08T11:25:52.689Z,29.73
2022-08-08T11:28:29.507Z,29.87
2022-08-08T11:53:50.610Z,30.16
2022-08-08T11:56:25.506Z,30.25
2022-08-08T11:58:52.463Z,30.36
2022-08-08T12:01:19.200Z,30.35
2022-08-08T12:03:56.087Z,30.20
2022-08-08T12:06:26.169Z,30.29
2022-08-08T12:09:05.779Z,30.38
2022-08-08T12:11:38.854Z,30.33
2022-08-08T12:14:07.787Z,30.34
2022-08-08T12:16:48.891Z,30.36
2022-08-08T12:19:15.980Z,30.42
2022-08-08T12:21:59.823Z,30.60
2022-08-08T12:24:42.997Z,30.72
2022-08-08T12:27:18.818Z,30.74
2022-08-08T12:29:59.097Z,30.69
2022-08-08T12:32:26.042Z,30.80
2022-08-08T12:34:59.028Z,30.92
2022-08-08T12:37:41.247Z,31.07
2022-08-08T12:40:23.888Z,31.03
2022-08-08T12:42:52.210Z,31.02
2022-08-08T12:45:58.072Z,31.11
2022-08-08T12:48:35.716Z,31.21
2022-08-08T12:51:02.810Z,31.22
2022-08-08T12:53:38.006Z,31.14
2022-08-08T12:56:19.619Z,31.08
2022-08-08T12:58:54.300Z,31.26
2022-08-08T13:01:34.946Z,31.57
2022-08-08T13:04:18.312Z,31.69
2022-08-08T13:06:58.685Z,31.77
2022-08-08T13:09:33.055Z,31.77
2022-08-08T13:12:24.455Z,31.83
2022-08-08T13:14:53.738Z,31.72
2022-08-08T13:18:09.518Z,31.61
2022-08-08T13:20:18.322Z,31.60
2022-08-08T13:22:45.904Z,31.47
2022-08-08T13:25:17.874Z,31.56
2022-08-08T13:27:56.645Z,31.77
2022-08-08T13:30:28.526Z,32.04
2022-08-08T13:33:01.336Z,32.27
2022-08-08T13:35:38.653Z,32.14
2022-08-08T13:38:08.563Z,31.95
2022-08-08T13:40:41.295Z,31.98
2022-08-08T13:43:08.396Z,32.05
2022-08-08T13:45:35.306Z,32.28
2022-08-08T13:48:03.876Z,32.24
2022-08-08T13:50:50.452Z,32.41
2022-08-08T13:53:31.600Z,32.60
2022-08-08T13:56:11.637Z,32.69
2022-08-08T13:58:57.647Z,32.77
2022-08-08T14:01:42.141Z,32.80
2022-08-08T14:04:22.031Z,33.22
2022-08-08T14:06:48.943Z,33.67
2022-08-08T14:09:25.212Z,33.76
2022-08-08T14:11:59.267Z,33.94
2022-08-08T14:14:46.904Z,34.35
2022-08-08T14:17:22.682Z,34.86
2022-08-08T14:20:06.993Z,35.54
2022-08-08T14:22:42.938Z,35.98
2022-08-08T14:25:15.553Z,36.09
2022-08-08T14:28:00.015Z,36.17
2022-08-08T14:30:34.412Z,36.56
2022-08-08T14:33:01.538Z,36.66
2022-08-08T14:35:36.126Z,37.03
2022-08-08T14:38:33.440Z,37.61
2022-08-08T14:40:59.532Z,37.71
2022-08-08T14:44:02.049Z,37.27
2022-08-08T14:46:30.845Z,36.97
2022-08-08T14:49:20.100Z,37.09
2022-08-08T14:51:53.138Z,37.45
2022-08-08T14:54:29.322Z,37.96
2022-08-08T14:56:57.253Z,38.57
2022-08-08T14:59:31.419Z,38.99
2022-08-08T15:02:14.214Z,39.25
2022-08-08T15:04:42.313Z,39.62
2022-08-08T15:07:22.497Z,39.69
2022-08-08T15:09:51.524Z,39.67
2022-08-08T15:12:27.206Z,39.77
2022-08-08T15:14:54.903Z,40.02
2022-08-08T15:17:22.502Z,40.26
2022-08-08T15:19:50.511Z,40.26
2022-08-08T15:22:18.095Z,40.20
2022-08-08T15:24:51.023Z,40.10
2022-08-08T15:28:03.548Z,39.99
2022-08-08T15:30:06.121Z,40.12
2022-08-08T15:32:39.091Z,40.08
2022-08-08T15:35:07.312Z,40.29
2022-08-08T15:37:34.201Z,40.67
2022-08-08T15:40:01.082Z,40.69
2022-08-08T15:42:32.493Z,40.70
2022-08-08T15:45:00.917Z,40.95
2022-08-08T15:47:27.987Z,40.99
2022-08-08T15:49:58.072Z,40.93
2022-08-08T15:52:25.009Z,40.47
2022-08-08T15:54:53.698Z,40.02
2022-08-08T15:57:21.868Z,39.93
2022-08-08T16:00:05.341Z,39.82
2022-08-08T16:02:36.406Z,39.83
2022-08-08T16:05:04.195Z,39.70
2022-08-08T16:07:52.136Z,39.79
2022-08-08T16:13:03.739Z,39.89
2022-08-08T16:13:29.409Z,39.94
2022-08-08T16:15:57.725Z,39.66
2022-08-08T16:18:27.804Z,39.58
2022-08-08T16:21:00.239Z,39.37
2022-08-08T16:23:32.190Z,39.23
2022-08-08T16:26:04.811Z,39.34
2022-08-08T16:28:43.987Z,39.25
2022-08-08T16:31:12.323Z,39.32
2022-08-08T16:33:40.357Z,39.46
2022-08-08T16:36:15.564Z,39.57
2022-08-08T16:38:47.603Z,39.63
2022-08-08T16:41:22.533Z,39.26
2022-08-08T16:43:51.324Z,38.97
2022-08-08T16:46:38.899Z,38.61
2022-08-08T16:49:08.738Z,38.43
2022-08-08T16:55:01.398Z,38.59
2022-08-08T16:55:22.898Z,38.68
2022-08-08T16:57:23.253Z,38.81
2022-08-08T17:00:06.191Z,38.91
2022-08-08T17:02:39.181Z,38.52
2022-08-08T17:05:08.524Z,38.35
2022-08-08T17:07:37.898Z,38.14
2022-08-08T17:10:08.548Z,38.02
2022-08-08T17:12:36.802Z,37.56
2022-08-08T17:15:17.411Z,36.76
2022-08-08T17:18:02.291Z,35.93
2022-08-08T17:20:31.440Z,35.06
2022-08-08T17:23:18.449Z,34.46
2022-08-08T17:25:52.090Z,33.82
2022-08-08T17:28:34.618Z,33.31
2022-08-08T17:31:39.130Z,32.80
2022-08-08T17:34:53.341Z,32.39
2022-08-08T17:36:55.044Z,32.06
2022-08-08T17:40:04.101Z,31.73
2022-08-08T17:42:13.384Z,31.51
2022-08-08T17:44:44.455Z,31.33
2022-08-08T17:47:24.385Z,31.17
2022-08-08T17:50:01.476Z,31.00
2022-08-08T17:52:30.057Z,30.84
2022-08-08T17:54:57.375Z,30.71
2022-08-08T17:57:24.725Z,30.57
2022-08-08T17:59:58.818Z,30.39
2022-08-08T18:02:29.313Z,30.29
2022-08-08T18:04:58.574Z,30.18
2022-08-08T18:08:04.011Z,30.10
2022-08-08T18:10:15.323Z,30.05
2022-08-08T18:12:44.350Z,29.96
2022-08-08T18:15:12.903Z,29.86
2022-08-08T18:18:05.450Z,29.80
2022-08-08T18:20:37.164Z,29.72
2022-08-08T18:23:14.636Z,29.63
2022-08-08T18:25:42.914Z,29.52
2022-08-08T18:28:13.022Z,29.42
2022-08-08T18:30:43.996Z,29.35
2022-08-08T18:33:36.817Z,29.27
2022-08-08T18:36:03.238Z,29.17
2022-08-08T18:38:32.190Z,29.11
2022-08-08T18:41:00.991Z,29.00
2022-08-08T18:43:37.977Z,28.92
2022-08-08T18:46:56.302Z,28.83
2022-08-08T18:48:57.940Z,28.73
2022-08-08T18:51:48.345Z,28.65
2022-08-08T18:54:21.891Z,28.52
2022-08-08T18:56:50.102Z,28.44
2022-08-08T18:59:17.244Z,28.35
2022-08-08T19:02:25.117Z,28.26
2022-08-08T19:04:31.243Z,28.17
2022-08-08T19:06:57.868Z,28.08
2022-08-08T19:09:49.071Z,28.00
2022-08-08T19:12:13.421Z,27.89
2022-08-08T19:14:40.302Z,27.81
2022-08-08T19:17:10.807Z,27.73
2022-08-08T19:19:37.812Z,27.63
2022-08-08T19:22:11.135Z,27.50
2022-08-08T19:24:43.223Z,27.39
2022-08-08T19:27:56.408Z,27.21
2022-08-08T19:30:24.201Z,27.08
2022-08-08T19:32:51.456Z,26.94
2022-08-08T19:35:20.089Z,26.84
2022-08-08T19:37:57.631Z,26.72
2022-08-08T19:40:31.141Z,26.60
2022-08-08T19:42:59.431Z,26.52
2022-08-08T19:45:59.253Z,26.44
2022-08-08T19:48:31.029Z,26.36
2022-08-08T19:51:00.822Z,26.28
2022-08-08T19:53:53.830Z,26.21
2022-08-08T19:56:16.523Z,26.13
2022-08-08T19:59:01.672Z,26.04
2022-08-08T20:01:50.263Z,25.96
2022-08-08T20:04:16.280Z,25.87
2022-08-08T20:06:43.787Z,25.81
2022-08-08T20:09:15.925Z,25.75
2022-08-08T20:11:49.682Z,25.68
2022-08-08T20:14:34.053Z,25.62
2022-08-08T20:17:02.746Z,25.54
2022-08-08T20:19:34.574Z,25.49
2022-08-08T20:22:13.289Z,25.43
2022-08-08T20:24:48.006Z,25.35
2022-08-08T20:27:20.178Z,25.32
2022-08-08T20:29:56.010Z,25.27
2022-08-08T20:32:28.550Z,25.21
2022-08-08T20:35:01.177Z,25.16
2022-08-08T20:37:47.071Z,25.10
2022-08-08T20:40:17.155Z,25.03
2022-08-08T20:42:54.765Z,24.97
2022-08-08T20:45:23.373Z,24.94
2022-08-08T20:48:09.463Z,24.86
2022-08-08T20:50:36.481Z,24.80
2022-08-08T20:53:06.831Z,24.74
2022-08-08T20:55:45.336Z,24.68
2022-08-08T20:58:23.141Z,24.64
2022-08-08T21:00:50.760Z,24.59
2022-08-08T21:03:17.472Z,24.53
2022-08-08T21:05:59.123Z,24.48
2022-08-08T21:08:37.137Z,24.42
2022-08-08T21:11:13.427Z,24.37
2022-08-08T21:13:41.294Z,24.31
2022-08-08T21:16:18.214Z,24.26
2022-08-08T21:18:57.170Z,24.21
2022-08-08T21:21:39.858Z,24.17
2022-08-08T21:24:22.277Z,24.11
2022-08-08T21:26:53.853Z,24.05
2022-08-08T21:29:21.634Z,24.02
2022-08-08T21:31:58.503Z,23.98
2022-08-08T21:34:29.904Z,23.94
2022-08-08T21:36:58.311Z,23.90
2022-08-08T21:39:41.548Z,23.87
2022-08-08T21:42:11.867Z,23.81
2022-08-08T21:44:38.596Z,23.75
2022-08-08T21:48:06.684Z,23.70
2022-08-08T21:50:11.837Z,23.65
2022-08-08T21:54:31.446Z,23.60
2022-08-08T21:56:27.015Z,23.56
2022-08-08T21:58:13.790Z,23.50
2022-08-08T22:00:41.109Z,23.47
2022-08-08T22:03:07.857Z,23.42
2022-08-08T22:05:41.572Z,23.39
2022-08-08T22:08:08.747Z,23.34
2022-08-08T22:10:35.685Z,23.31
2022-08-08T22:13:17.554Z,23.27
2022-08-08T22:15:59.721Z,23.20
2022-08-08T22:18:32.608Z,23.19
2022-08-08T22:21:10.610Z,23.13
2022-08-08T22:23:50.403Z,23.10
2022-08-08T22:26:29.928Z,23.06
2022-08-08T22:29:13.060Z,23.02
2022-08-08T22:32:02.348Z,22.99
2022-08-08T22:34:31.966Z,22.93
2022-08-08T22:36:59.577Z,22.89
2022-08-08T22:39:39.374Z,22.84
2022-08-08T22:42:14.517Z,22.80
2022-08-08T22:44:54.455Z,22.76
2022-08-08T22:47:21.118Z,22.74
2022-08-08T22:49:54.154Z,22.72
2022-08-08T22:52:33.546Z,22.68
2022-08-08T22:55:04.895Z,22.65
2022-08-08T22:57:44.382Z,22.61
2022-08-08T23:00:16.649Z,22.59
2022-08-08T23:02:49.927Z,22.56
2022-08-08T23:05:17.111Z,22.54
2022-08-08T23:07:51.908Z,22.50
2022-08-08T23:10:25.520Z,22.47
2022-08-08T23:12:54.396Z,22.45
2022-08-08T23:16:41.109Z,22.42
2022-08-08T23:18:11.823Z,22.38
2022-08-08T23:20:39.951Z,22.36
2022-08-08T23:23:06.478Z,22.33
2022-08-08T23:25:33.486Z,22.31
2022-08-08T23:28:12.087Z,22.27
2022-08-08T23:30:38.652Z,22.25
2022-08-08T23:33:19.273Z,22.21
2022-08-08T23:36:07.489Z,22.18
2022-08-08T23:38:34.787Z,22.16
2022-08-08T23:41:02.422Z,22.17
2022-08-08T23:43:45.926Z,22.14
2022-08-08T23:49:02.364Z,22.12
2022-08-08T23:49:14.918Z,22.07
2022-08-08T23:52:04.923Z,22.04
2022-08-08T23:54:43.053Z,22.02
2022-08-08T23:57:27.174Z,21.99
